Time;durP1;ratioP1;P1;durP2;ratioP2;P2;SDS_P1;SDS_P2;PMS_P1;PMS_P2;Temp;Humidity;BMP_temperature;BMP_pressure;BME280_temperature;BME280_humidity;BME280_pressure;Samples;Min_cycle;Max_cycle;Signal;HPM_P1;HPM_P2
2022/01/26 00:09:41;;;;;;;0.20;0.00;;;6.70;99.90;;;;;;25590313;23;20260;-65
2022/01/26 00:19:52;;;;;;;0.20;0.10;;;6.80;99.90;;;;;;25590039;23;20270;-65
2022/01/26 00:31:13;;;;;;;0.20;0.00;;;6.90;99.90;;;;;;25591132;23;20201;-70
2022/01/26 00:40:36;;;;;;;6.60;0.83;;;7.30;99.90;;;;;;25588507;23;20202;-71
2022/01/26 00:50:49;;;;;;;0.20;0.00;;;8.20;99.90;;;;;;25589182;23;20169;-69
2022/01/26 01:00:55;;;;;;;0.20;0.00;;;8.10;99.90;;;;;;25590821;23;20243;-69
2022/01/26 01:10:59;;;;;;;0.20;0.00;;;7.90;99.90;;;;;;25588570;23;20256;-70
2022/01/26 01:21:40;;;;;;;0.20;0.10;;;7.00;99.90;;;;;;25588272;23;20170;-70
2022/01/26 01:31:45;;;;;;;0.20;0.00;;;6.00;99.90;;;;;;25587435;23;20202;-64
2022/01/26 01:41:52;;;;;;;0.20;0.00;;;6.20;99.90;;;;;;25588827;23;20167;-65
2022/01/26 01:52:01;;;;;;;0.20;0.10;;;6.20;99.90;;;;;;25588703;23;20458;-65
2022/01/26 02:02:06;;;;;;;0.20;0.10;;;5.80;99.90;;;;;;25588570;23;20240;-65
2022/01/26 02:12:16;;;;;;;0.20;0.00;;;6.90;99.90;;;;;;25586167;23;20202;-65
2022/01/26 02:53:42;;;;;;;0.20;0.10;;;6.00;99.90;;;;;;25586327;23;20206;-66
2022/01/26 03:03:56;;;;;;;0.20;0.00;;;6.80;99.90;;;;;;25585765;23;20225;-65
2022/01/26 03:14:08;;;;;;;0.20;0.10;;;6.90;99.90;;;;;;25584238;23;20296;-66
2022/01/26 03:34:31;;;;;;;0.20;0.10;;;5.00;99.90;;;;;;25557021;23;20297;-66
2022/01/26 03:44:37;;;;;;;0.20;0.10;;;4.60;99.90;;;;;;25594967;23;20248;-66
2022/01/26 03:54:41;;;;;;;0.33;0.33;;;4.60;99.90;;;;;;25592810;23;20278;-67
2022/01/26 04:04:52;;;;;;;0.20;0.03;;;3.90;99.90;;;;;;25591047;23;20202;-67
2022/01/26 04:15:02;;;;;;;0.20;0.10;;;4.00;99.90;;;;;;25592661;23;20490;-66
2022/01/26 04:25:09;;;;;;;0.20;0.10;;;3.70;99.90;;;;;;25591054;23;20173;-66
2022/01/26 04:35:12;;;;;;;0.20;0.10;;;3.60;99.90;;;;;;25590479;23;20190;-66
2022/01/26 04:45:18;;;;;;;0.20;0.10;;;3.90;99.90;;;;;;25589654;23;20174;-66
2022/01/26 04:55:22;;;;;;;2.23;2.13;;;4.20;99.90;;;;;;25590145;23;20696;-67
2022/01/26 05:05:27;;;;;;;0.20;0.20;;;3.80;99.90;;;;;;25589706;23;20524;-67
2022/01/26 05:15:31;;;;;;;0.20;0.13;;;4.10;99.90;;;;;;25583687;23;20194;-67
2022/01/26 05:25:37;;;;;;;0.20;0.10;;;3.90;99.90;;;;;;25589031;23;20170;-65
2022/01/26 05:35:42;;;;;;;0.20;0.10;;;4.10;99.90;;;;;;25585704;23;20247;-66
2022/01/26 05:45:51;;;;;;;0.20;0.10;;;4.00;99.90;;;;;;25587324;23;20213;-65
2022/01/26 05:55:55;;;;;;;0.20;0.10;;;4.20;99.90;;;;;;25586251;23;20242;-66
2022/01/26 06:06:00;;;;;;;0.20;0.10;;;4.00;99.90;;;;;;25586394;23;20202;-65
2022/01/26 06:16:04;;;;;;;0.20;0.10;;;3.80;99.90;;;;;;25584912;23;20194;-65
2022/01/26 06:26:10;;;;;;;0.20;0.10;;;3.90;99.90;;;;;;25585184;23;20228;-66
2022/01/26 06:36:16;;;;;;;0.20;0.10;;;3.70;99.90;;;;;;25583760;23;20615;-66
2022/01/26 06:46:27;;;;;;;0.20;0.10;;;4.20;99.90;;;;;;25584248;23;20548;-66
2022/01/26 06:56:31;;;;;;;0.20;0.00;;;4.10;99.90;;;;;;25582549;23;20643;-65
2022/01/26 07:06:36;;;;;;;0.20;0.10;;;4.10;99.90;;;;;;25574907;23;20222;-64
2022/01/26 07:27:04;;;;;;;0.20;0.10;;;4.10;99.90;;;;;;25580215;23;20256;-66
2022/01/26 07:37:10;;;;;;;0.20;0.10;;;4.30;99.90;;;;;;25581177;23;20514;-66
2022/01/26 07:47:15;;;;;;;0.20;0.10;;;4.50;99.90;;;;;;25582569;23;20166;-66
2022/01/26 07:57:20;;;;;;;0.20;0.10;;;5.20;99.90;;;;;;25580046;23;20190;-66
2022/01/26 08:07:26;;;;;;;0.20;0.00;;;5.90;99.90;;;;;;25576314;23;20204;-65
2022/01/26 08:17:30;;;;;;;0.20;0.00;;;6.20;99.90;;;;;;25582234;23;20246;-65
2022/01/26 08:27:40;;;;;;;0.20;0.10;;;7.00;99.90;;;;;;25587882;23;20258;-66
2022/01/26 08:37:44;;;;;;;0.20;0.00;;;7.60;99.90;;;;;;25585563;23;20247;-67
2022/01/26 08:47:49;;;;;;;0.20;0.10;;;8.40;99.90;;;;;;25587907;23;20268;-66
2022/01/26 08:57:53;;;;;;;0.20;0.10;;;8.80;99.90;;;;;;25585915;23;20279;-66
2022/01/26 09:08:00;;;;;;;0.20;0.10;;;9.10;99.90;;;;;;25585905;23;20225;-68
2022/01/26 09:18:06;;;;;;;0.20;0.10;;;9.50;99.90;;;;;;25585146;23;20554;-66
2022/01/26 09:28:11;;;;;;;0.20;0.10;;;9.80;99.90;;;;;;25582706;23;20179;-64
2022/01/26 09:38:15;;;;;;;0.20;0.00;;;10.10;99.90;;;;;;25572101;23;20194;-65
2022/01/26 09:48:20;;;;;;;0.20;0.10;;;10.40;99.90;;;;;;25570917;23;20189;-65
2022/01/26 09:58:24;;;;;;;0.20;0.10;;;10.70;99.90;;;;;;25566821;23;20309;-66
2022/01/26 10:08:58;;;;;;;0.20;0.10;;;11.00;99.90;;;;;;25568419;23;20221;-63
2022/01/26 10:19:04;;;;;;;0.20;0.10;;;11.20;99.90;;;;;;25565589;23;20200;-70
2022/01/26 10:29:10;;;;;;;0.20;0.10;;;11.50;99.90;;;;;;25564831;23;20205;-69
2022/01/26 10:39:20;;;;;;;0.20;0.10;;;11.80;99.90;;;;;;25568217;23;20193;-69
2022/01/26 10:49:44;;;;;;;0.20;0.10;;;12.20;99.90;;;;;;25567696;23;20199;-71
2022/01/26 10:59:49;;;;;;;0.20;0.20;;;13.00;99.90;;;;;;25566844;23;20202;-69
2022/01/26 11:09:55;;;;;;;0.20;0.07;;;13.60;99.90;;;;;;25567105;23;20257;-70
2022/01/26 11:20:03;;;;;;;0.20;0.10;;;13.80;99.90;;;;;;25567295;23;20189;-69
2022/01/26 11:30:18;;;;;;;0.20;0.10;;;14.30;99.90;;;;;;25567887;23;20245;-71
2022/01/26 11:50:48;;;;;;;0.20;0.10;;;15.60;99.90;;;;;;25564850;23;20240;-70
2022/01/26 12:01:10;;;;;;;0.20;0.10;;;15.60;99.90;;;;;;25575106;23;20206;-70
2022/01/26 12:11:17;;;;;;;0.20;0.10;;;15.70;99.90;;;;;;25570288;23;20206;-70
2022/01/26 12:42:22;;;;;;;0.20;0.10;;;17.00;99.90;;;;;;25562868;23;20212;-66
2022/01/26 12:52:29;;;;;;;0.50;0.50;;;17.30;99.90;;;;;;25568597;23;20241;-66
2022/01/26 13:02:34;;;;;;;0.20;0.10;;;18.10;99.90;;;;;;25565449;23;20260;-64
2022/01/26 13:12:39;;;;;;;1.30;1.30;;;18.00;99.90;;;;;;25572325;23;20198;-66
2022/01/26 13:22:59;;;;;;;0.20;0.10;;;18.40;99.90;;;;;;25572665;23;20272;-68
2022/01/26 13:33:27;;;;;;;0.20;0.10;;;18.70;99.90;;;;;;25563445;23;20178;-67
2022/01/26 13:44:17;;;;;;;0.20;0.10;;;18.70;99.90;;;;;;25568043;23;20196;-67
2022/01/26 14:04:43;;;;;;;0.20;0.10;;;18.80;99.90;;;;;;25571644;23;20647;-69
2022/01/26 14:14:53;;;;;;;0.20;0.00;;;19.60;99.90;;;;;;25573611;23;20658;-78
2022/01/26 14:25:14;;;;;;;0.20;0.10;;;19.70;99.90;;;;;;25571878;23;20174;-77
2022/01/26 14:35:45;;;;;;;0.20;0.10;;;19.90;99.90;;;;;;25570729;23;20193;-78
2022/01/26 15:59:35;;;;;;;0.20;0.10;;;17.80;99.90;;;;;;25550882;23;20206;-78
2022/01/26 16:20:23;;;;;;;0.20;0.00;;;16.20;99.90;;;;;;25593485;23;20281;-77
2022/01/26 18:56:41;;;;;;;0.20;0.10;;;9.20;99.90;;;;;;25500073;23;20255;-65
2022/01/26 19:06:51;;;;;;;0.20;0.10;;;8.90;99.90;;;;;;25582948;23;20724;-65
2022/01/26 19:17:00;;;;;;;0.20;0.10;;;8.90;99.90;;;;;;25583719;23;20218;-64
2022/01/26 19:27:16;;;;;;;0.20;0.10;;;9.60;99.90;;;;;;25578255;23;20177;-73
2022/01/26 19:58:07;;;;;;;0.20;0.10;;;11.30;99.90;;;;;;25580433;23;20202;-74
2022/01/26 20:08:26;;;;;;;0.20;0.10;;;10.70;99.90;;;;;;25576022;23;20629;-75
2022/01/26 20:18:30;;;;;;;0.20;0.10;;;10.30;99.90;;;;;;25582899;23;20186;-74
2022/01/26 20:28:38;;;;;;;0.20;0.10;;;9.80;99.90;;;;;;25583389;23;20217;-63
2022/01/26 20:38:42;;;;;;;0.20;0.10;;;8.80;99.90;;;;;;25583622;23;20265;-64
2022/01/26 20:48:47;;;;;;;0.83;0.83;;;8.70;99.90;;;;;;25584270;23;20170;-64
2022/01/26 20:58:52;;;;;;;0.20;0.00;;;8.00;99.90;;;;;;25583467;23;20285;-63
2022/01/26 21:08:57;;;;;;;4.33;1.93;;;8.20;99.90;;;;;;25583485;23;20221;-64
2022/01/26 21:19:01;;;;;;;0.20;0.10;;;7.60;99.90;;;;;;25583106;23;20559;-68
2022/01/26 21:29:06;;;;;;;0.20;0.00;;;7.50;99.90;;;;;;25588253;23;20194;-69
2022/01/26 21:39:10;;;;;;;0.20;0.10;;;7.00;99.90;;;;;;25588115;23;20234;-68
2022/01/26 21:49:16;;;;;;;0.20;0.10;;;7.20;99.90;;;;;;25587160;23;20166;-70
2022/01/26 21:59:19;;;;;;;0.20;0.10;;;7.80;99.90;;;;;;25589036;23;20222;-67
2022/01/26 22:09:25;;;;;;;0.20;0.10;;;7.40;99.90;;;;;;25587009;23;20624;-67
2022/01/26 22:19:28;;;;;;;0.20;0.10;;;7.80;99.90;;;;;;25585474;23;20186;-74
2022/01/26 22:29:33;;;;;;;0.20;0.10;;;8.30;99.90;;;;;;25586467;23;20228;-74
2022/01/26 22:39:37;;;;;;;0.20;0.10;;;8.30;99.90;;;;;;25586408;23;20190;-73
2022/01/26 22:49:42;;;;;;;0.20;0.10;;;8.50;99.90;;;;;;25587218;23;20245;-73
2022/01/26 22:59:46;;;;;;;0.20;0.10;;;7.70;99.90;;;;;;25585134;23;20205;-73
2022/01/26 23:09:51;;;;;;;0.20;0.10;;;7.00;99.90;;;;;;25586306;23;20221;-72
2022/01/26 23:19:55;;;;;;;6.00;5.47;;;7.10;99.90;;;;;;25587038;23;20186;-74
2022/01/26 23:30:31;;;;;;;0.20;0.10;;;7.20;99.90;;;;;;25584453;23;20228;-66
2022/01/26 23:41:04;;;;;;;5.40;4.53;;;7.20;99.90;;;;;;25584568;23;20186;-66
